sensor_id;sensor_type;location;lat;lon;timestamp;temperature;humidity
11559;DHT22;5835;42.930;25.178;2022-08-25T00:01:39;20.40;99.90
11559;DHT22;5835;42.930;25.178;2022-08-25T00:04:10;20.30;99.90
11559;DHT22;5835;42.930;25.178;2022-08-25T00:06:39;20.20;99.90
11559;DHT22;5835;42.930;25.178;2022-08-25T00:09:07;20.20;99.90
11559;DHT22;5835;42.930;25.178;2022-08-25T00:11:38;20.20;99.90
11559;DHT22;5835;42.930;25.178;2022-08-25T00:14:08;20.20;99.90
11559;DHT22;5835;42.930;25.178;2022-08-25T00:16:36;20.30;99.90
11559;DHT22;5835;42.930;25.178;2022-08-25T00:19:06;20.30;99.90
11559;DHT22;5835;42.930;25.178;2022-08-25T00:21:34;20.40;99.90
11559;DHT22;5835;42.930;25.178;2022-08-25T00:24:02;20.50;99.90
11559;DHT22;5835;42.930;25.178;2022-08-25T00:26:30;20.50;99.90
11559;DHT22;5835;42.930;25.178;2022-08-25T00:29:00;20.50;99.90
11559;DHT22;5835;42.930;25.178;2022-08-25T00:31:28;20.60;99.90
11559;DHT22;5835;42.930;25.178;2022-08-25T00:33:56;20.60;99.90
11559;DHT22;5835;42.930;25.178;2022-08-25T00:36:25;20.50;99.90
11559;DHT22;5835;42.930;25.178;2022-08-25T00:38:53;20.60;99.90
11559;DHT22;5835;42.930;25.178;2022-08-25T00:41:23;20.70;99.90
11559;DHT22;5835;42.930;25.178;2022-08-25T00:43:52;20.70;99.90
11559;DHT22;5835;42.930;25.178;2022-08-25T00:46:24;20.70;99.90
11559;DHT22;5835;42.930;25.178;2022-08-25T00:48:58;20.60;99.90
11559;DHT22;5835;42.930;25.178;2022-08-25T00:51:33;20.60;99.90
11559;DHT22;5835;42.930;25.178;2022-08-25T00:54:03;20.40;99.90
11559;DHT22;5835;42.930;25.178;2022-08-25T00:56:31;20.40;99.90
11559;DHT22;5835;42.930;25.178;2022-08-25T00:59:01;20.30;99.90
11559;DHT22;5835;42.930;25.178;2022-08-25T01:01:31;20.20;99.90
11559;DHT22;5835;42.930;25.178;2022-08-25T01:03:59;20.10;99.90
11559;DHT22;5835;42.930;25.178;2022-08-25T01:06:27;20.10;99.90
11559;DHT22;5835;42.930;25.178;2022-08-25T01:08:56;20.20;99.90
11559;DHT22;5835;42.930;25.178;2022-08-25T01:11:24;20.20;99.90
11559;DHT22;5835;42.930;25.178;2022-08-25T01:13:54;20.10;99.90
11559;DHT22;5835;42.930;25.178;2022-08-25T01:16:22;20.10;99.90
11559;DHT22;5835;42.930;25.178;2022-08-25T01:18:55;20.00;99.90
11559;DHT22;5835;42.930;25.178;2022-08-25T01:21:27;20.00;99.90
11559;DHT22;5835;42.930;25.178;2022-08-25T01:23:56;20.00;99.90
11559;DHT22;5835;42.930;25.178;2022-08-25T01:26:26;20.00;99.90
11559;DHT22;5835;42.930;25.178;2022-08-25T01:28:54;20.00;99.90
11559;DHT22;5835;42.930;25.178;2022-08-25T01:31:39;20.00;99.90
11559;DHT22;5835;42.930;25.178;2022-08-25T01:34:08;20.10;99.90
11559;DHT22;5835;42.930;25.178;2022-08-25T01:36:39;20.10;99.90
11559;DHT22;5835;42.930;25.178;2022-08-25T01:39:07;20.10;99.90
11559;DHT22;5835;42.930;25.178;2022-08-25T01:41:44;19.90;99.90
11559;DHT22;5835;42.930;25.178;2022-08-25T01:44:12;19.90;99.90
11559;DHT22;5835;42.930;25.178;2022-08-25T01:46:39;19.90;99.90
11559;DHT22;5835;42.930;25.178;2022-08-25T01:49:07;20.00;99.90
11559;DHT22;5835;42.930;25.178;2022-08-25T01:51:42;19.80;99.90
11559;DHT22;5835;42.930;25.178;2022-08-25T01:54:10;19.90;99.90
11559;DHT22;5835;42.930;25.178;2022-08-25T01:56:38;19.90;99.90
11559;DHT22;5835;42.930;25.178;2022-08-25T01:59:06;19.90;99.90
11559;DHT22;5835;42.930;25.178;2022-08-25T02:01:33;19.90;99.90
11559;DHT22;5835;42.930;25.178;2022-08-25T02:04:01;19.80;99.90
11559;DHT22;5835;42.930;25.178;2022-08-25T02:06:30;19.80;99.90
11559;DHT22;5835;42.930;25.178;2022-08-25T02:09:03;19.80;99.90
11559;DHT22;5835;42.930;25.178;2022-08-25T02:11:34;19.90;99.90
11559;DHT22;5835;42.930;25.178;2022-08-25T02:14:02;19.80;99.90
11559;DHT22;5835;42.930;25.178;2022-08-25T02:16:31;19.70;99.90
11559;DHT22;5835;42.930;25.178;2022-08-25T02:19:00;19.80;99.90
11559;DHT22;5835;42.930;25.178;2022-08-25T02:21:28;19.70;99.90
11559;DHT22;5835;42.930;25.178;2022-08-25T02:23:57;19.70;99.90
11559;DHT22;5835;42.930;25.178;2022-08-25T02:26:27;19.70;99.90
11559;DHT22;5835;42.930;25.178;2022-08-25T02:28:54;19.70;99.90
11559;DHT22;5835;42.930;25.178;2022-08-25T02:31:23;19.80;99.90
11559;DHT22;5835;42.930;25.178;2022-08-25T02:33:52;19.80;99.90
11559;DHT22;5835;42.930;25.178;2022-08-25T02:36:20;19.80;99.90
11559;DHT22;5835;42.930;25.178;2022-08-25T02:38:49;19.70;99.90
11559;DHT22;5835;42.930;25.178;2022-08-25T02:41:18;19.70;99.90
11559;DHT22;5835;42.930;25.178;2022-08-25T02:43:48;19.70;99.90
11559;DHT22;5835;42.930;25.178;2022-08-25T02:46:17;19.70;99.90
11559;DHT22;5835;42.930;25.178;2022-08-25T02:48:45;19.70;99.90
11559;DHT22;5835;42.930;25.178;2022-08-25T02:51:13;19.80;99.90
11559;DHT22;5835;42.930;25.178;2022-08-25T02:53:42;19.80;99.90
11559;DHT22;5835;42.930;25.178;2022-08-25T02:56:12;19.80;99.90
11559;DHT22;5835;42.930;25.178;2022-08-25T02:58:40;19.70;99.90
11559;DHT22;5835;42.930;25.178;2022-08-25T03:01:10;19.70;99.90
11559;DHT22;5835;42.930;25.178;2022-08-25T03:03:38;19.70;99.90
11559;DHT22;5835;42.930;25.178;2022-08-25T03:06:07;19.70;99.90
11559;DHT22;5835;42.930;25.178;2022-08-25T03:08:35;19.90;99.90
11559;DHT22;5835;42.930;25.178;2022-08-25T03:11:03;20.20;99.90
11559;DHT22;5835;42.930;25.178;2022-08-25T03:13:31;20.40;99.90
11559;DHT22;5835;42.930;25.178;2022-08-25T03:15:59;20.50;99.90
11559;DHT22;5835;42.930;25.178;2022-08-25T03:18:28;20.40;99.90
11559;DHT22;5835;42.930;25.178;2022-08-25T03:20:56;20.30;99.90
11559;DHT22;5835;42.930;25.178;2022-08-25T03:23:23;20.10;99.90
11559;DHT22;5835;42.930;25.178;2022-08-25T03:25:53;19.80;99.90
11559;DHT22;5835;42.930;25.178;2022-08-25T03:28:38;19.90;99.90
11559;DHT22;5835;42.930;25.178;2022-08-25T03:31:07;20.00;99.90
11559;DHT22;5835;42.930;25.178;2022-08-25T03:33:37;20.20;99.90
11559;DHT22;5835;42.930;25.178;2022-08-25T03:36:05;20.40;99.90
11559;DHT22;5835;42.930;25.178;2022-08-25T03:38:35;20.20;99.90
11559;DHT22;5835;42.930;25.178;2022-08-25T03:41:12;20.10;99.90
11559;DHT22;5835;42.930;25.178;2022-08-25T03:43:41;19.80;99.90
11559;DHT22;5835;42.930;25.178;2022-08-25T03:46:15;19.90;99.90
11559;DHT22;5835;42.930;25.178;2022-08-25T03:48:45;19.70;99.90
11559;DHT22;5835;42.930;25.178;2022-08-25T03:51:19;19.70;99.90
11559;DHT22;5835;42.930;25.178;2022-08-25T03:53:47;19.50;99.90
11559;DHT22;5835;42.930;25.178;2022-08-25T03:56:14;19.50;99.90
11559;DHT22;5835;42.930;25.178;2022-08-25T03:58:43;19.60;99.90
11559;DHT22;5835;42.930;25.178;2022-08-25T04:01:11;19.40;99.90
11559;DHT22;5835;42.930;25.178;2022-08-25T04:03:38;19.40;99.90
11559;DHT22;5835;42.930;25.178;2022-08-25T04:06:08;19.40;99.90
11559;DHT22;5835;42.930;25.178;2022-08-25T04:08:37;19.40;99.90
11559;DHT22;5835;42.930;25.178;2022-08-25T04:11:06;19.50;99.90
11559;DHT22;5835;42.930;25.178;2022-08-25T04:13:34;19.50;99.90
11559;DHT22;5835;42.930;25.178;2022-08-25T04:16:10;19.50;99.90
11559;DHT22;5835;42.930;25.178;2022-08-25T04:18:39;19.40;99.90
11559;DHT22;5835;42.930;25.178;2022-08-25T04:21:09;19.50;99.90
11559;DHT22;5835;42.930;25.178;2022-08-25T04:23:38;19.50;99.90
11559;DHT22;5835;42.930;25.178;2022-08-25T04:26:09;19.50;99.90
11559;DHT22;5835;42.930;25.178;2022-08-25T04:28:37;19.60;99.90
11559;DHT22;5835;42.930;25.178;2022-08-25T04:31:06;19.60;99.90
11559;DHT22;5835;42.930;25.178;2022-08-25T04:33:34;19.70;99.90
11559;DHT22;5835;42.930;25.178;2022-08-25T04:36:02;19.80;99.90
11559;DHT22;5835;42.930;25.178;2022-08-25T04:38:32;19.80;99.90
11559;DHT22;5835;42.930;25.178;2022-08-25T04:41:02;19.80;99.90
11559;DHT22;5835;42.930;25.178;2022-08-25T04:43:31;19.90;99.90
11559;DHT22;5835;42.930;25.178;2022-08-25T04:46:03;20.00;99.90
11559;DHT22;5835;42.930;25.178;2022-08-25T04:48:31;20.40;99.90
11559;DHT22;5835;42.930;25.178;2022-08-25T04:51:03;20.30;99.90
11559;DHT22;5835;42.930;25.178;2022-08-25T04:53:33;20.40;99.90
11559;DHT22;5835;42.930;25.178;2022-08-25T04:56:04;20.50;99.90
11559;DHT22;5835;42.930;25.178;2022-08-25T04:58:32;20.50;99.90
11559;DHT22;5835;42.930;25.178;2022-08-25T05:01:01;20.50;99.90
11559;DHT22;5835;42.930;25.178;2022-08-25T05:03:29;20.60;99.90
11559;DHT22;5835;42.930;25.178;2022-08-25T05:06:00;20.60;99.90
11559;DHT22;5835;42.930;25.178;2022-08-25T05:08:27;20.60;99.90
11559;DHT22;5835;42.930;25.178;2022-08-25T05:10:57;20.50;99.90
11559;DHT22;5835;42.930;25.178;2022-08-25T05:13:25;20.60;99.90
11559;DHT22;5835;42.930;25.178;2022-08-25T05:15:54;20.60;99.90
11559;DHT22;5835;42.930;25.178;2022-08-25T05:18:23;20.60;99.90
11559;DHT22;5835;42.930;25.178;2022-08-25T05:20:51;20.70;99.90
11559;DHT22;5835;42.930;25.178;2022-08-25T05:23:21;20.70;99.90
11559;DHT22;5835;42.930;25.178;2022-08-25T05:25:49;20.80;99.90
11559;DHT22;5835;42.930;25.178;2022-08-25T05:28:19;20.90;99.90
11559;DHT22;5835;42.930;25.178;2022-08-25T05:30:47;20.90;99.90
11559;DHT22;5835;42.930;25.178;2022-08-25T05:33:15;21.00;99.90
11559;DHT22;5835;42.930;25.178;2022-08-25T05:35:43;21.00;99.90
11559;DHT22;5835;42.930;25.178;2022-08-25T05:38:11;21.10;99.90
11559;DHT22;5835;42.930;25.178;2022-08-25T05:40:39;21.30;99.90
11559;DHT22;5835;42.930;25.178;2022-08-25T05:43:06;21.40;99.90
11559;DHT22;5835;42.930;25.178;2022-08-25T05:45:36;21.40;99.90
11559;DHT22;5835;42.930;25.178;2022-08-25T05:48:04;21.20;99.90
11559;DHT22;5835;42.930;25.178;2022-08-25T05:50:31;21.20;99.90
11559;DHT22;5835;42.930;25.178;2022-08-25T05:52:59;21.30;99.90
11559;DHT22;5835;42.930;25.178;2022-08-25T05:55:27;21.30;99.90
11559;DHT22;5835;42.930;25.178;2022-08-25T05:57:55;21.40;99.90
11559;DHT22;5835;42.930;25.178;2022-08-25T06:00:23;21.50;99.90
11559;DHT22;5835;42.930;25.178;2022-08-25T06:02:52;21.70;99.90
11559;DHT22;5835;42.930;25.178;2022-08-25T06:05:20;21.80;99.90
11559;DHT22;5835;42.930;25.178;2022-08-25T06:07:50;21.90;99.90
11559;DHT22;5835;42.930;25.178;2022-08-25T06:10:19;21.90;99.90
11559;DHT22;5835;42.930;25.178;2022-08-25T06:12:47;22.00;99.90
11559;DHT22;5835;42.930;25.178;2022-08-25T06:15:17;22.10;99.90
11559;DHT22;5835;42.930;25.178;2022-08-25T06:17:45;22.30;99.90
11559;DHT22;5835;42.930;25.178;2022-08-25T06:20:16;22.30;99.90
11559;DHT22;5835;42.930;25.178;2022-08-25T06:22:44;22.40;99.90
11559;DHT22;5835;42.930;25.178;2022-08-25T06:25:15;22.40;99.90
11559;DHT22;5835;42.930;25.178;2022-08-25T06:27:43;22.70;99.90
11559;DHT22;5835;42.930;25.178;2022-08-25T06:30:14;22.80;99.90
11559;DHT22;5835;42.930;25.178;2022-08-25T06:32:43;23.10;89.90
11559;DHT22;5835;42.930;25.178;2022-08-25T06:35:16;23.10;32.50
11559;DHT22;5835;42.930;25.178;2022-08-25T06:37:44;23.50;10.60
11559;DHT22;5835;42.930;25.178;2022-08-25T06:40:12;23.80;1.00
11559;DHT22;5835;42.930;25.178;2022-08-25T06:42:41;23.70;1.00
11559;DHT22;5835;42.930;25.178;2022-08-25T06:45:09;23.60;1.00
11559;DHT22;5835;42.930;25.178;2022-08-25T06:47:37;23.70;1.00
11559;DHT22;5835;42.930;25.178;2022-08-25T06:50:05;23.60;1.00
11559;DHT22;5835;42.930;25.178;2022-08-25T06:52:34;23.50;1.00
11559;DHT22;5835;42.930;25.178;2022-08-25T06:55:03;23.20;1.00
11559;DHT22;5835;42.930;25.178;2022-08-25T06:57:31;23.40;1.00
11559;DHT22;5835;42.930;25.178;2022-08-25T07:00:00;23.60;1.00
11559;DHT22;5835;42.930;25.178;2022-08-25T07:02:28;23.50;1.00
11559;DHT22;5835;42.930;25.178;2022-08-25T07:04:56;23.60;1.00
11559;DHT22;5835;42.930;25.178;2022-08-25T07:07:24;23.50;1.00
11559;DHT22;5835;42.930;25.178;2022-08-25T07:09:53;23.50;1.00
11559;DHT22;5835;42.930;25.178;2022-08-25T07:12:20;23.50;1.00
11559;DHT22;5835;42.930;25.178;2022-08-25T07:14:49;23.90;1.00
11559;DHT22;5835;42.930;25.178;2022-08-25T07:17:17;23.80;1.00
11559;DHT22;5835;42.930;25.178;2022-08-25T07:19:45;23.90;1.00
11559;DHT22;5835;42.930;25.178;2022-08-25T07:22:13;24.10;1.00
11559;DHT22;5835;42.930;25.178;2022-08-25T07:24:40;24.40;99.90
11559;DHT22;5835;42.930;25.178;2022-08-25T07:27:09;24.50;99.90
11559;DHT22;5835;42.930;25.178;2022-08-25T07:29:37;24.20;99.90
11559;DHT22;5835;42.930;25.178;2022-08-25T07:32:05;24.40;1.00
11559;DHT22;5835;42.930;25.178;2022-08-25T07:34:33;24.40;99.90
11559;DHT22;5835;42.930;25.178;2022-08-25T07:37:18;24.40;99.90
11559;DHT22;5835;42.930;25.178;2022-08-25T07:39:47;24.80;99.90
11559;DHT22;5835;42.930;25.178;2022-08-25T07:42:16;25.00;1.00
11559;DHT22;5835;42.930;25.178;2022-08-25T07:44:44;24.80;99.90
11559;DHT22;5835;42.930;25.178;2022-08-25T07:47:12;24.70;99.90
11559;DHT22;5835;42.930;25.178;2022-08-25T07:49:40;24.60;99.90
11559;DHT22;5835;42.930;25.178;2022-08-25T07:52:09;24.50;95.50
11559;DHT22;5835;42.930;25.178;2022-08-25T07:54:36;24.30;99.90
11559;DHT22;5835;42.930;25.178;2022-08-25T07:57:05;24.60;99.50
11559;DHT22;5835;42.930;25.178;2022-08-25T07:59:37;24.70;1.00
11559;DHT22;5835;42.930;25.178;2022-08-25T08:02:06;24.60;99.90
11559;DHT22;5835;42.930;25.178;2022-08-25T08:04:35;24.80;47.90
11559;DHT22;5835;42.930;25.178;2022-08-25T08:07:03;25.10;1.00
11559;DHT22;5835;42.930;25.178;2022-08-25T08:09:31;25.40;1.00
11559;DHT22;5835;42.930;25.178;2022-08-25T08:11:59;25.00;99.90
11559;DHT22;5835;42.930;25.178;2022-08-25T08:14:27;25.00;1.00
11559;DHT22;5835;42.930;25.178;2022-08-25T08:16:56;24.90;3.00
11559;DHT22;5835;42.930;25.178;2022-08-25T08:19:24;24.80;99.90
11559;DHT22;5835;42.930;25.178;2022-08-25T08:21:52;25.10;99.90
11559;DHT22;5835;42.930;25.178;2022-08-25T08:24:20;25.20;90.50
11559;DHT22;5835;42.930;25.178;2022-08-25T08:26:47;25.00;1.00
11559;DHT22;5835;42.930;25.178;2022-08-25T08:29:15;25.20;1.00
11559;DHT22;5835;42.930;25.178;2022-08-25T08:31:44;25.00;1.00
11559;DHT22;5835;42.930;25.178;2022-08-25T08:34:13;24.90;1.00
11559;DHT22;5835;42.930;25.178;2022-08-25T08:36:43;25.00;1.00
11559;DHT22;5835;42.930;25.178;2022-08-25T08:39:11;25.30;99.90
11559;DHT22;5835;42.930;25.178;2022-08-25T08:41:56;25.40;1.00
11559;DHT22;5835;42.930;25.178;2022-08-25T08:45:04;25.90;1.00
11559;DHT22;5835;42.930;25.178;2022-08-25T08:47:47;26.20;99.90
11559;DHT22;5835;42.930;25.178;2022-08-25T08:50:28;26.40;99.90
11559;DHT22;5835;42.930;25.178;2022-08-25T08:53:02;26.60;14.70
11559;DHT22;5835;42.930;25.178;2022-08-25T08:55:34;26.30;1.00
11559;DHT22;5835;42.930;25.178;2022-08-25T08:58:05;26.20;1.00
11559;DHT22;5835;42.930;25.178;2022-08-25T09:00:45;26.10;1.00
11559;DHT22;5835;42.930;25.178;2022-08-25T09:03:19;26.40;99.90
11559;DHT22;5835;42.930;25.178;2022-08-25T09:05:56;26.40;1.00
11559;DHT22;5835;42.930;25.178;2022-08-25T09:08:25;26.50;1.00
11559;DHT22;5835;42.930;25.178;2022-08-25T09:10:59;26.80;1.00
11559;DHT22;5835;42.930;25.178;2022-08-25T09:13:35;26.60;99.90
11559;DHT22;5835;42.930;25.178;2022-08-25T09:16:12;27.20;99.90
11559;DHT22;5835;42.930;25.178;2022-08-25T09:19:08;26.10;99.90
11559;DHT22;5835;42.930;25.178;2022-08-25T09:21:44;26.20;99.90
11559;DHT22;5835;42.930;25.178;2022-08-25T09:27:14;26.30;95.00
11559;DHT22;5835;42.930;25.178;2022-08-25T09:29:54;26.20;99.90
11559;DHT22;5835;42.930;25.178;2022-08-25T09:32:26;26.30;99.90
11559;DHT22;5835;42.930;25.178;2022-08-25T09:34:53;26.60;71.60
11559;DHT22;5835;42.930;25.178;2022-08-25T09:37:23;26.70;1.00
11559;DHT22;5835;42.930;25.178;2022-08-25T09:39:51;27.10;1.00
11559;DHT22;5835;42.930;25.178;2022-08-25T09:42:18;27.30;1.00
11559;DHT22;5835;42.930;25.178;2022-08-25T09:44:47;27.20;1.00
11559;DHT22;5835;42.930;25.178;2022-08-25T09:47:21;27.50;1.00
11559;DHT22;5835;42.930;25.178;2022-08-25T09:49:56;27.20;1.00
11559;DHT22;5835;42.930;25.178;2022-08-25T09:52:34;27.50;1.00
11559;DHT22;5835;42.930;25.178;2022-08-25T09:55:28;27.30;1.00
11559;DHT22;5835;42.930;25.178;2022-08-25T09:57:57;27.60;1.00
11559;DHT22;5835;42.930;25.178;2022-08-25T10:00:28;26.80;1.00
11559;DHT22;5835;42.930;25.178;2022-08-25T10:03:18;26.60;1.00
11559;DHT22;5835;42.930;25.178;2022-08-25T10:05:59;26.90;1.00
11559;DHT22;5835;42.930;25.178;2022-08-25T10:08:34;26.80;1.00
11559;DHT22;5835;42.930;25.178;2022-08-25T10:11:03;27.00;1.00
11559;DHT22;5835;42.930;25.178;2022-08-25T10:13:38;27.20;1.00
11559;DHT22;5835;42.930;25.178;2022-08-25T10:16:09;26.90;1.00
11559;DHT22;5835;42.930;25.178;2022-08-25T10:18:38;26.80;1.00
11559;DHT22;5835;42.930;25.178;2022-08-25T10:21:09;27.00;1.00
11559;DHT22;5835;42.930;25.178;2022-08-25T10:23:47;27.10;1.00
11559;DHT22;5835;42.930;25.178;2022-08-25T10:26:29;27.10;1.00
11559;DHT22;5835;42.930;25.178;2022-08-25T10:29:08;27.20;1.00
11559;DHT22;5835;42.930;25.178;2022-08-25T10:31:45;27.20;1.00
11559;DHT22;5835;42.930;25.178;2022-08-25T10:34:29;27.20;1.00
11559;DHT22;5835;42.930;25.178;2022-08-25T10:37:09;27.40;1.00
11559;DHT22;5835;42.930;25.178;2022-08-25T10:39:49;27.40;1.00
11559;DHT22;5835;42.930;25.178;2022-08-25T10:42:29;27.10;99.90
11559;DHT22;5835;42.930;25.178;2022-08-25T10:45:09;27.10;1.00
11559;DHT22;5835;42.930;25.178;2022-08-25T10:48:21;27.40;1.00
11559;DHT22;5835;42.930;25.178;2022-08-25T10:50:54;27.50;99.90
11559;DHT22;5835;42.930;25.178;2022-08-25T10:53:27;27.50;99.90
11559;DHT22;5835;42.930;25.178;2022-08-25T10:56:09;27.30;99.90
11559;DHT22;5835;42.930;25.178;2022-08-25T10:58:57;27.30;99.90
11559;DHT22;5835;42.930;25.178;2022-08-25T11:01:52;27.40;99.90
11559;DHT22;5835;42.930;25.178;2022-08-25T11:04:28;27.30;99.90
11559;DHT22;5835;42.930;25.178;2022-08-25T11:07:03;27.20;99.90
11559;DHT22;5835;42.930;25.178;2022-08-25T11:09:35;27.20;99.90
11559;DHT22;5835;42.930;25.178;2022-08-25T11:12:09;27.20;99.90
11559;DHT22;5835;42.930;25.178;2022-08-25T11:14:42;27.40;99.90
11559;DHT22;5835;42.930;25.178;2022-08-25T11:17:13;27.40;99.90
11559;DHT22;5835;42.930;25.178;2022-08-25T11:19:44;27.60;99.90
11559;DHT22;5835;42.930;25.178;2022-08-25T11:22:20;27.50;99.90
11559;DHT22;5835;42.930;25.178;2022-08-25T11:25:09;27.70;99.90
11559;DHT22;5835;42.930;25.178;2022-08-25T11:27:44;27.70;99.90
11559;DHT22;5835;42.930;25.178;2022-08-25T11:30:15;27.90;99.90
11559;DHT22;5835;42.930;25.178;2022-08-25T11:32:46;27.20;99.90
11559;DHT22;5835;42.930;25.178;2022-08-25T11:35:16;27.50;99.90
11559;DHT22;5835;42.930;25.178;2022-08-25T11:37:56;27.40;99.90
11559;DHT22;5835;42.930;25.178;2022-08-25T11:40:45;27.60;99.90
11559;DHT22;5835;42.930;25.178;2022-08-25T11:43:34;27.50;99.90
11559;DHT22;5835;42.930;25.178;2022-08-25T11:46:17;27.90;99.90
11559;DHT22;5835;42.930;25.178;2022-08-25T11:48:59;27.60;99.90
11559;DHT22;5835;42.930;25.178;2022-08-25T11:51:30;27.50;99.90
11559;DHT22;5835;42.930;25.178;2022-08-25T11:56:59;27.20;99.90
11559;DHT22;5835;42.930;25.178;2022-08-25T12:00:09;27.30;99.90
11559;DHT22;5835;42.930;25.178;2022-08-25T12:02:41;27.40;99.90
11559;DHT22;5835;42.930;25.178;2022-08-25T12:05:48;27.50;99.90
11559;DHT22;5835;42.930;25.178;2022-08-25T12:08:02;27.80;99.90
11559;DHT22;5835;42.930;25.178;2022-08-25T12:10:59;28.30;99.90
11559;DHT22;5835;42.930;25.178;2022-08-25T12:13:43;28.10;99.90
11559;DHT22;5835;42.930;25.178;2022-08-25T12:16:38;28.00;99.90
11559;DHT22;5835;42.930;25.178;2022-08-25T12:19:30;28.30;99.90
11559;DHT22;5835;42.930;25.178;2022-08-25T12:22:39;28.80;99.90
11559;DHT22;5835;42.930;25.178;2022-08-25T12:25:26;28.90;99.90
11559;DHT22;5835;42.930;25.178;2022-08-25T12:28:02;28.90;99.90
11559;DHT22;5835;42.930;25.178;2022-08-25T12:30:40;29.20;99.90
11559;DHT22;5835;42.930;25.178;2022-08-25T12:33:18;28.70;99.90
11559;DHT22;5835;42.930;25.178;2022-08-25T12:35:55;28.90;99.90
11559;DHT22;5835;42.930;25.178;2022-08-25T12:38:32;29.50;99.90
11559;DHT22;5835;42.930;25.178;2022-08-25T12:41:06;29.60;99.90
11559;DHT22;5835;42.930;25.178;2022-08-25T12:43:37;29.70;99.90
11559;DHT22;5835;42.930;25.178;2022-08-25T12:46:36;29.40;98.00
11559;DHT22;5835;42.930;25.178;2022-08-25T12:51:57;29.50;94.80
11559;DHT22;5835;42.930;25.178;2022-08-25T12:54:44;28.40;94.70
11559;DHT22;5835;42.930;25.178;2022-08-25T12:57:32;29.00;99.90
11559;DHT22;5835;42.930;25.178;2022-08-25T13:00:04;29.00;99.90
11559;DHT22;5835;42.930;25.178;2022-08-25T13:03:08;28.90;98.90
11559;DHT22;5835;42.930;25.178;2022-08-25T13:06:12;29.40;77.40
11559;DHT22;5835;42.930;25.178;2022-08-25T13:11:40;31.50;38.90
11559;DHT22;5835;42.930;25.178;2022-08-25T13:14:16;31.00;1.00
11559;DHT22;5835;42.930;25.178;2022-08-25T13:16:53;31.20;1.00
11559;DHT22;5835;42.930;25.178;2022-08-25T13:19:21;31.80;1.00
11559;DHT22;5835;42.930;25.178;2022-08-25T13:21:51;30.80;1.00
11559;DHT22;5835;42.930;25.178;2022-08-25T13:24:21;30.80;1.00
11559;DHT22;5835;42.930;25.178;2022-08-25T13:26:53;30.60;1.00
11559;DHT22;5835;42.930;25.178;2022-08-25T13:29:24;30.40;1.00
11559;DHT22;5835;42.930;25.178;2022-08-25T13:31:56;30.30;1.00
11559;DHT22;5835;42.930;25.178;2022-08-25T13:34:27;30.00;1.00
11559;DHT22;5835;42.930;25.178;2022-08-25T13:37:04;31.30;1.00
11559;DHT22;5835;42.930;25.178;2022-08-25T13:40:07;31.70;1.00
11559;DHT22;5835;42.930;25.178;2022-08-25T13:42:36;30.30;1.00
11559;DHT22;5835;42.930;25.178;2022-08-25T13:45:05;30.00;1.00
11559;DHT22;5835;42.930;25.178;2022-08-25T13:47:35;30.70;1.00
11559;DHT22;5835;42.930;25.178;2022-08-25T13:50:19;31.40;1.00
11559;DHT22;5835;42.930;25.178;2022-08-25T13:52:53;31.10;1.00
11559;DHT22;5835;42.930;25.178;2022-08-25T13:55:24;30.70;1.00
11559;DHT22;5835;42.930;25.178;2022-08-25T13:57:52;30.80;1.00
11559;DHT22;5835;42.930;25.178;2022-08-25T14:00:32;30.40;1.00
11559;DHT22;5835;42.930;25.178;2022-08-25T14:03:01;31.10;1.00
11559;DHT22;5835;42.930;25.178;2022-08-25T14:05:34;30.50;1.00
11559;DHT22;5835;42.930;25.178;2022-08-25T14:08:05;31.50;1.00
11559;DHT22;5835;42.930;25.178;2022-08-25T14:10:37;31.70;1.00
11559;DHT22;5835;42.930;25.178;2022-08-25T14:13:12;30.90;1.00
11559;DHT22;5835;42.930;25.178;2022-08-25T14:15:41;29.90;1.00
11559;DHT22;5835;42.930;25.178;2022-08-25T14:18:15;29.90;1.00
11559;DHT22;5835;42.930;25.178;2022-08-25T14:20:47;29.90;1.00
11559;DHT22;5835;42.930;25.178;2022-08-25T14:23:19;30.60;1.00
11559;DHT22;5835;42.930;25.178;2022-08-25T14:25:48;30.20;1.00
11559;DHT22;5835;42.930;25.178;2022-08-25T14:28:18;31.40;1.00
11559;DHT22;5835;42.930;25.178;2022-08-25T14:30:49;31.70;1.00
11559;DHT22;5835;42.930;25.178;2022-08-25T14:33:19;31.20;1.00
11559;DHT22;5835;42.930;25.178;2022-08-25T14:35:50;30.40;1.00
11559;DHT22;5835;42.930;25.178;2022-08-25T14:38:21;30.30;1.00
11559;DHT22;5835;42.930;25.178;2022-08-25T14:40:48;30.20;1.00
11559;DHT22;5835;42.930;25.178;2022-08-25T14:43:16;30.50;1.00
11559;DHT22;5835;42.930;25.178;2022-08-25T14:45:45;29.80;1.00
11559;DHT22;5835;42.930;25.178;2022-08-25T14:48:21;30.10;1.00
11559;DHT22;5835;42.930;25.178;2022-08-25T14:50:50;30.00;1.00
11559;DHT22;5835;42.930;25.178;2022-08-25T14:53:20;30.30;1.00
11559;DHT22;5835;42.930;25.178;2022-08-25T14:55:48;30.30;1.00
11559;DHT22;5835;42.930;25.178;2022-08-25T14:58:19;30.80;1.00
11559;DHT22;5835;42.930;25.178;2022-08-25T15:00:47;30.30;1.00
11559;DHT22;5835;42.930;25.178;2022-08-25T15:03:19;29.90;1.00
11559;DHT22;5835;42.930;25.178;2022-08-25T15:05:50;29.80;1.00
11559;DHT22;5835;42.930;25.178;2022-08-25T15:08:18;29.80;1.00
11559;DHT22;5835;42.930;25.178;2022-08-25T15:11:03;29.80;1.00
11559;DHT22;5835;42.930;25.178;2022-08-25T15:13:31;29.80;1.00
11559;DHT22;5835;42.930;25.178;2022-08-25T15:15:59;29.90;1.00
11559;DHT22;5835;42.930;25.178;2022-08-25T15:18:28;29.70;1.00
11559;DHT22;5835;42.930;25.178;2022-08-25T15:20:56;29.60;1.00
11559;DHT22;5835;42.930;25.178;2022-08-25T15:23:25;29.50;1.00
11559;DHT22;5835;42.930;25.178;2022-08-25T15:25:53;29.40;1.00
11559;DHT22;5835;42.930;25.178;2022-08-25T15:28:23;29.60;1.00
11559;DHT22;5835;42.930;25.178;2022-08-25T15:30:51;29.40;1.00
11559;DHT22;5835;42.930;25.178;2022-08-25T15:33:19;29.70;1.00
11559;DHT22;5835;42.930;25.178;2022-08-25T15:35:47;30.00;1.00
11559;DHT22;5835;42.930;25.178;2022-08-25T15:38:15;30.10;1.00
11559;DHT22;5835;42.930;25.178;2022-08-25T15:40:45;29.90;1.00
11559;DHT22;5835;42.930;25.178;2022-08-25T15:43:12;29.80;1.00
11559;DHT22;5835;42.930;25.178;2022-08-25T15:45:40;29.40;4.50
11559;DHT22;5835;42.930;25.178;2022-08-25T15:48:08;29.60;12.50
11559;DHT22;5835;42.930;25.178;2022-08-25T15:50:35;29.50;20.30
11559;DHT22;5835;42.930;25.178;2022-08-25T15:53:03;29.60;15.00
11559;DHT22;5835;42.930;25.178;2022-08-25T15:55:31;29.60;9.90
11559;DHT22;5835;42.930;25.178;2022-08-25T15:58:00;29.70;16.50
11559;DHT22;5835;42.930;25.178;2022-08-25T16:00:28;29.70;6.60
11559;DHT22;5835;42.930;25.178;2022-08-25T16:02:56;29.40;11.10
11559;DHT22;5835;42.930;25.178;2022-08-25T16:05:23;29.10;11.80
11559;DHT22;5835;42.930;25.178;2022-08-25T16:07:51;29.10;21.80
11559;DHT22;5835;42.930;25.178;2022-08-25T16:10:19;28.80;31.50
11559;DHT22;5835;42.930;25.178;2022-08-25T16:12:47;28.80;56.40
11559;DHT22;5835;42.930;25.178;2022-08-25T16:15:16;28.90;49.20
11559;DHT22;5835;42.930;25.178;2022-08-25T16:17:43;28.30;70.20